NCAR-RAP Real-Time Weather Data

Output produced by METARs form (25 September 2018  05:14 UTC)
found at http://weather.rap.ucar.edu/surface/
 
KBWI 250454Z 07010KT 7SM OVC008 18/17 A3033 RMK AO2 DZE14RAB14E50 SLP271 P0000 T01780172 401940161
KBWI 250354Z 08011KT 4SM -DZ BR OVC008 17/17 A3035 RMK AO2 RAB08E34DZB51 SLP277 P0001 T01720172
KBWI 250254Z 07010KT 8SM OVC007 17/17 A3035 RMK AO2 RAE53 SLP275 P0002 60014 T01720167 50001
KBWI 250154Z 07014KT 3SM -RA BR OVC007 17/17 A3035 RMK AO2 SLP277 P0005 T01670167
KBWI 250105Z 07013KT 3SM -RA BR OVC008 17/17 A3036 RMK AO2 P0001 T01670167
KBWI 250054Z 07011KT 3SM -RA BR FEW007 OVC012 17/17 A3036 RMK AO2 SLP281 P0007 T01720167
KBWI 250036Z 08012KT 3SM -RA BR FEW007 OVC012 17/17 A3036 RMK AO2 P0006 T01720167
KBWI 250022Z 08016KT 2 1/2SM -RA BR SCT007 OVC012 17/17 A3035 RMK AO2 P0005 T01720167
KBWI 242354Z 08015G21KT 2 1/2SM RA BR OVC009 17/17 A3034 RMK AO2 RAB2255 SLP274 P0002 60002 T01720167 10194 20172 53003
KBWI 242324Z 07014KT 4SM -RA BR OVC008 17/17 A3034 RMK AO2 RAB2255 P0001 T01720167
KBWI 242254Z 07014KT 5SM BR OVC010 18/17 A3034 RMK AO2 SLP274 VIS NE-SE 1 1/2 T01780167
KBWI 242154Z 07018G22KT 10SM OVC014 18/16 A3033 RMK AO2 RAE18 SLP271 P0000 T01780161
KBWI 242147Z 07012G21KT 10SM OVC014 18/16 A3033 RMK AO2 RAE18 P0000 T01830161
KBWI 242054Z 08017KT 9SM -RA OVC017 18/16 A3033 RMK AO2 RAB36 SLP271 PCPN VRY LGT P0000 60000 T01830161 56007
KBWI 241954Z 08010KT 10SM BKN014 OVC020 18/16 A3034 RMK AO2 RAE03 SLP273 P0000 T01830161
KBWI 241854Z 08010KT 9SM -RA BKN014 OVC019 18/17 A3035 RMK AO2 RAB20 SLP275 P0000 T01830172
KBWI 241838Z 07010KT 8SM -RA BKN014 OVC019 18/17 A3035 RMK AO2 RAB20 P0000 T01830172
KBWI 241837Z 07011KT 8SM -RA BKN014 OVC019 18/17 A3035 RMK AO2 RAB20 P0000 T01830172
KBWI 241754Z 09018KT 10SM BKN018 OVC026 19/16 A3035 RMK AO2 RAB1655E46 SLP278 P0000 60001 T01890161 10194 20172 58005
KBWI 241654Z 08016G23KT 10SM SCT009 BKN016 OVC033 19/17 A3036 RMK AO2 DZE48 SLP280 P0000 T01940167
KBWI 241554Z 08011KT 8SM -DZ FEW005 SCT009 OVC016 18/17 A3037 RMK AO2 DZB32 SLP282 P0000 T01830167
KBWI 241533Z 08012KT 6SM -DZ BR FU FEW003 BKN018 OVC026 19/17 A3036 RMK AO2 DZB32 FU FEW003 FU PLUME AT AP DRFTG W P0000 T01890167
KBWI 241454Z 08012KT 8SM FEW009 OVC016 18/16 A3037 RMK AO2 DZE04 SLP283 P0000 60001 T01830161 51015
KBWI 241404Z 06009KT 5SM BR SCT007 BKN016 OVC029 18/17 A3036 RMK AO2 DZE04 P0000 T01780167
KBWI 241354Z 07011KT 3SM -DZ BR BKN007 BKN015 OVC025 18/17 A3036 RMK AO2 SLP280 P0000 T01780167
KBWI 241351Z 06010KT 3SM -DZ BR BKN007 BKN015 OVC025 18/17 A3036 RMK AO2 P0000
KBWI 241254Z 07009KT 1SM R10/P6000FT -DZ BR BKN006 OVC012 17/17 A3035 RMK AO2 SLP276 P0001 T01720167
KBWI 241154Z 07010KT 1 3/4SM -DZ BR BKN007 OVC012 17/17 A3033 RMK AO2 SLP269 P0001 60006 70095 T01720167 10172 20161 51022
KBWI 241121Z 07010KT 1 3/4SM -DZ BR BKN007 OVC012 17/17 A3031 RMK AO2 P0000 T01720167
KBWI 241106Z 07011KT 2 1/2SM -DZ BR BKN009 BKN014 OVC025 17/17 A3031 RMK AO2 P0000 T01670167
KBWI 241054Z 07010KT 3SM -DZ BR SCT007 BKN014 OVC025 17/17 A3031 RMK AO2 RAE27DZB37 SLP263 P0000 T01720167
KBWI 241040Z COR 07013G19KT 4SM -DZ BR SCT007 BKN014 OVC026 17/17 A3030 RMK AO2 RAE27DZB37 P0000 T01670167
KBWI 241029Z 07010KT 4SM BR BKN007 BKN014 OVC022 17/17 A3030 RMK AO2 RAE27 P0000 T01720167
KBWI 240954Z 08012KT 2 1/2SM -RA BR BKN008 OVC016 17/17 A3028 RMK AO2 RAB29 SLP254 P0001 T01720167
KBWI 240854Z 06007KT 4SM BR OVC005 17/17 A3026 RMK AO2 SLP247 P0001 60004 T01670167 51002
KBWI 240754Z 04008KT 6SM BR OVC005 17/16 A3026 RMK AO2 RAE39 SLP246 P0001 T01670161
KBWI 240701Z 04007KT 4SM -RA BR OVC004 16/16 A3026 RMK AO2 P0000 T01610161
KBWI 240654Z 04006KT 5SM -RA BR OVC005 16/16 A3026 RMK AO2 DZE06RAB06E29B54 SLP245 P0002 T01610161
KBWI 240554Z 03007KT 5SM -DZ BR OVC006 16/16 A3026 RMK AO2 RAB03E50DZB50 SLP246 P0001 60029 T01610156 10167 20161 53002
KBWI 240454Z 04007KT 7SM OVC007 16/16 A3026 RMK AO2 RAE40 SLP245 P0000 T01610156 401720150
KBWI 240354Z 05009KT 10SM -RA OVC006 16/16 A3025 RMK AO2 SLP243 P0001 T01610161
KBWI 240254Z 06008KT 10SM -RA OVC008 16/16 A3025 RMK AO2 SLP244 P0003 60027 T01610156 53010
KBWI 240154Z 05011KT 8SM -RA BKN007 OVC022 16/16 A3024 RMK AO2 SLP240 BKN007 V SCT P0003 T01610161
KBWI 240127Z 04009KT 9SM -RA SCT007 OVC022 17/16 A3024 RMK AO2 P0002 T01670161
KBWI 240054Z 04009KT 6SM -RA BR BKN007 BKN021 OVC043 17/16 A3023 RMK AO2 SLP236 P0021 T01670161
KBWI 232354Z 03005KT 4SM RA BR BKN009 OVC018 16/16 A3022 RMK AO2 SLP234 P0007 60012 T01610161 10172 20161 51010
KBWI 232309Z 04005KT 4SM -RA BR FEW005 SCT021 OVC030 16/16 A3021 RMK AO2 P0002 T01610161
KBWI 232254Z 03007KT 2 1/2SM -RA BR FEW007 OVC021 16/16 A3021 RMK AO2 SLP228 P0001 T01610161
KBWI 232228Z 02005KT 2 1/2SM -RA BR SCT007 OVC022 16/16 A3021 RMK AO2 P0000 T01610156
KBWI 232154Z 01005KT 8SM -RA SCT008 BKN021 OVC026 16/16 A3021 RMK AO2 SLP229 P0001 T01610156
KBWI 232054Z 05008KT 8SM -RA FEW008 BKN012 OVC018 17/16 A3019 RMK AO2 SLP223 P0001 60003 T01670156 56004
KBWI 231954Z 06007KT 7SM -RA SCT008 BKN014 OVC021 17/16 A3020 RMK AO2 SLP226 P0002 T01670156
KBWI 231854Z 07008KT 9SM -RA SCT009 OVC015 17/16 A3020 RMK AO2 RAE19B46 SLP227 P0000 T01670156
KBWI 231754Z 07008KT 9SM -RA BKN007 BKN012 OVC022 17/16 A3021 RMK AO2 SLP228 P0004 60048 T01670161 10172 20156 56005
KBWI 231750Z 09007KT 9SM -RA BKN009 OVC022 17/16 A3021 RMK AO2 P0004
KBWI 231722Z 07009KT 6SM RA BR SCT015 BKN065 OVC100 17/16 A3021 RMK AO2 P0002 T01670161
KBWI 231654Z 06006KT 8SM -RA BKN008 BKN022 OVC030 17/16 A3022 RMK AO2 SLP231 P0003 T01670161
KBWI 231630Z 07007KT 6SM -RA BR OVC006 17/16 A3022 RMK AO2 P0002 T01670161
KBWI 231620Z 08005KT 5SM -RA BR BKN004 OVC009 17/16 A3022 RMK AO2 P0002 T01670161
KBWI 231554Z 05007KT 2 1/2SM -RA BR BKN013 BKN047 OVC070 16/16 A3022 RMK AO2 SLP233 P0016 T01610156
KBWI 231536Z 05008KT 2 1/2SM RA BR BKN013 BKN047 OVC080 16/15 A3022 RMK AO2 P0012 T01610150
KBWI 231519Z 06006KT 2 1/2SM RA BR SCT008 BKN075 OVC085 16/16 A3023 RMK AO2 P0007 T01610156
KBWI 231454Z 04008KT 2 1/2SM RA BR BKN008 BKN026 OVC046 16/16 A3022 RMK AO2 SLP233 P0015 60025 T01610156 51014
KBWI 231450Z 04007KT 2 1/2SM RA BR FEW005 BKN008 OVC048 16/16 A3022 RMK AO2 P0013
KBWI 231435Z 03007KT 3SM RA BR SCT009 BKN024 OVC070 16/16 A3022 RMK AO2 P0009 T01560156
KBWI 231354Z 05006KT 7SM -RA FEW030 SCT050 OVC070 16/15 A3021 RMK AO2 SLP231 P0005 T01560150
KBWI 231254Z 03004KT 8SM -RA FEW020 BKN095 OVC120 16/14 A3020 RMK AO2 SLP227 P0005 T01560144
KBWI 231154Z VRB05KT 9SM -RA SCT065 OVC090 16/14 A3018 RMK AO2 RAB1055 SLP220 P0001 60004 70004 T01560144 10167 20150 55000
KBWI 231141Z 03003KT 10SM -RA SCT065 OVC090 16/14 A3018 RMK AO2 RAB1055 P0000 T01560144
KBWI 231054Z VRB04KT 10SM BKN027 BKN065 OVC090 16/14 A3017 RMK AO2 RAB34E53 SLP217 P0000 T01610144
KBWI 230954Z 02003KT 10SM BKN027 BKN065 OVC100 16/14 A3018 RMK AO2 RAE25 SLP220 P0001 T01560139
KBWI 230854Z 36003KT 10SM -RA BKN027 OVC065 16/14 A3018 RMK AO2 SLP220 P0000 60002 T01560139 58001
KBWI 230801Z 00000KT 10SM -RA BKN027 OVC065 16/14 A3018 RMK AO2 P0000 T01560144
KBWI 230754Z 00000KT 10SM -RA SCT027 OVC065 16/14 A3018 RMK AO2 RAB0659 SLP221 P0002 T01560144
KBWI 230654Z 32004KT 10SM SCT027 OVC065 16/13 A3018 RMK AO2 RAB30E43 SLP221 P0000 T01610133
KBWI 230554Z 04003KT 10SM FEW037 SCT070 BKN160 BKN250 16/13 A3018 RMK AO2 SLP220 T01610128 10178 20150 58006
KBWI 230454Z 33004KT 10SM FEW037 SCT160 BKN250 16/13 A3020 RMK AO2 SLP226 T01560133 402560150
KBWI 230354Z 00000KT 10SM FEW160 SCT250 16/13 A3020 RMK AO2 SLP226 T01560133
KBWI 230254Z 00000KT 10SM FEW110 FEW160 BKN250 17/12 A3020 RMK AO2 SLP225 T01670117 51005
KBWI 230154Z 05004KT 10SM FEW110 FEW160 BKN250 17/12 A3020 RMK AO2 SLP223 T01670117
KBWI 230054Z 03004KT 10SM FEW100 SCT160 BKN250 17/12 A3020 RMK AO2 SLP225 T01720117
KBWI 222354Z 02005KT 10SM SCT100 BKN120 BKN180 BKN250 18/12 A3019 RMK AO2 SLP220 ACC E-SW T01780122 10244 20178 51016
KBWI 222254Z 02007KT 10SM BKN100 BKN180 BKN250 19/13 A3017 RMK AO2 SLP215 ACC ALQDS T01890133
KBWI 222154Z 35007KT 10SM FEW048 BKN095 BKN140 BKN180 OVC250 20/12 A3016 RMK AO2 SLP212 VIRGA DSNT NE ACC ALQDS T02000122
KBWI 222054Z 36007G15KT 10SM FEW048 BKN100 BKN140 BKN180 BKN250 21/13 A3014 RMK AO2 SLP204 T02110133 56001
KBWI 221954Z 35006KT 10SM FEW045 FEW110 SCT130 BKN160 23/14 A3014 RMK AO2 SLP205 T02280144
KBWI 221854Z 01006KT 10SM FEW020 BKN120 BKN250 23/15 A3013 RMK AO2 SLP203 T02330150
KBWI 221754Z 36005KT 10SM FEW020 BKN110 BKN250 24/15 A3014 RMK AO2 SLP205 T02390150 10256 20228 51007